Map

Track Data

SID SEASON NUMBER BASIN SUBBASIN NAME ISO_TIME NATURE LAT LON WMO_WIND WMO_PRES WMO_AGENCY TRACK_TYPE DIST2LAND LANDFALL IFLAG USA_AGENCY USA_ATCF_ID USA_LAT USA_LON USA_RECORD USA_STATUS USA_WIND USA_PRES USA_SSHS USA_R34_NE USA_R34_SE USA_R34_SW USA_R34_NW USA_R50_NE USA_R50_SE USA_R50_SW USA_R50_NW USA_R64_NE USA_R64_SE USA_R64_SW USA_R64_NW USA_POCI USA_ROCI USA_RMW USA_EYE TOKYO_LAT TOKYO_LON TOKYO_GRADE TOKYO_WIND TOKYO_PRES TOKYO_R50_DIR TOKYO_R50_LONG TOKYO_R50_SHORT TOKYO_R30_DIR TOKYO_R30_LONG TOKYO_R30_SHORT TOKYO_LAND CMA_LAT CMA_LON CMA_CAT CMA_WIND CMA_PRES HKO_LAT HKO_LON HKO_CAT HKO_WIND HKO_PRES NEWDELHI_LAT NEWDELHI_LON NEWDELHI_GRADE NEWDELHI_WIND NEWDELHI_PRES NEWDELHI_CI NEWDELHI_DP NEWDELHI_POCI REUNION_LAT REUNION_LON REUNION_TYPE REUNION_WIND REUNION_PRES REUNION_TNUM REUNION_CI REUNION_RMW REUNION_R34_NE REUNION_R34_SE REUNION_R34_SW REUNION_R34_NW REUNION_R50_NE REUNION_R50_SE REUNION_R50_SW REUNION_R50_NW REUNION_R64_NE REUNION_R64_SE REUNION_R64_SW REUNION_R64_NW BOM_LAT BOM_LON BOM_TYPE BOM_WIND BOM_PRES BOM_TNUM BOM_CI BOM_RMW BOM_R34_NE BOM_R34_SE BOM_R34_SW BOM_R34_NW BOM_R50_NE BOM_R50_SE BOM_R50_SW BOM_R50_NW BOM_R64_NE BOM_R64_SE BOM_R64_SW BOM_R64_NW BOM_ROCI BOM_POCI BOM_EYE BOM_POS_METHOD BOM_PRES_METHOD NADI_LAT NADI_LON NADI_CAT NADI_WIND NADI_PRES WELLINGTON_LAT WELLINGTON_LON WELLINGTON_WIND WELLINGTON_PRES DS824_LAT DS824_LON DS824_STAGE DS824_WIND DS824_PRES TD9636_LAT TD9636_LON TD9636_STAGE TD9636_WIND TD9636_PRES TD9635_LAT TD9635_LON TD9635_WIND TD9635_PRES TD9635_ROCI NEUMANN_LAT NEUMANN_LON NEUMANN_CLASS NEUMANN_WIND NEUMANN_PRES MLC_LAT MLC_LON MLC_CLASS MLC_WIND MLC_PRES USA_GUST BOM_GUST BOM_GUST_PER REUNION_GUST REUNION_GUST_PER USA_SEAHGT USA_SEARAD_NE USA_SEARAD_SE USA_SEARAD_SW USA_SEARAD_NW STORM_SPEED STORM_DIR
1943133N11082 1943 31 NI BB NOT_NAMED 1943-05-13 00:00:00 TS 10.7000 82.3000 main 227 227 _________O____ -1 10.7000 82.3000 TC 34 0 0
1943133N11082 1943 31 NI BB NOT_NAMED 1943-05-13 03:00:00 TS 10.7000 82.3000 main 227 227 _________PO___ -1 10.7000 82.3000 TC 36 10.7000 82.3000 2 0 0
1943133N11082 1943 31 NI BB NOT_NAMED 1943-05-13 06:00:00 TS 10.7000 82.3000 main 227 227 _________OP___ -1 10.7000 82.3000 TC 39 10.7000 82.3000 2 0 0
1943133N11082 1943 31 NI BB NOT_NAMED 1943-05-13 09:00:00 TS 10.7000 82.3000 main 227 227 _________PP___ -1 10.7000 82.3000 TC 42 10.7000 82.3000 2 0 0
1943133N11082 1943 31 NI BB NOT_NAMED 1943-05-13 12:00:00 TS 10.7000 82.3000 main 227 227 _________OP___ -1 10.7000 82.3000 TC 45 10.7000 82.3000 2 0 0
1943133N11082 1943 31 NI BB NOT_NAMED 1943-05-13 15:00:00 TS 10.7000 82.3000 main 227 227 _________PO___ -1 10.7000 82.3000 TC 45 10.7000 82.3000 3 0 0
1943133N11082 1943 31 NI BB NOT_NAMED 1943-05-13 18:00:00 TS 10.7000 82.3000 main 227 227 _________OP___ -1 10.7000 82.3000 TC 45 10.7000 82.3000 3 0 0
1943133N11082 1943 31 NI BB NOT_NAMED 1943-05-13 21:00:00 TS 10.7000 82.3000 main 227 227 _________PP___ -1 10.7000 82.3000 TC 45 10.7000 82.3000 3 0 0
1943133N11082 1943 31 NI BB NOT_NAMED 1943-05-14 00:00:00 TS 10.7000 82.3000 main 227 227 _________OP___ -1 10.7000 82.3000 TC 45 10.7000 82.3000 3 0 0
1943133N11082 1943 31 NI BB NOT_NAMED 1943-05-14 03:00:00 TS 10.7000 82.3000 main 227 227 _________PO___ -1 10.7000 82.3000 TC 45 10.7000 82.3000 3 0 0
1943133N11082 1943 31 NI BB NOT_NAMED 1943-05-14 06:00:00 TS 10.7000 82.3000 main 227 227 _________OP___ -1 10.7000 82.3000 TC 45 10.7000 82.3000 3 0 0
1943133N11082 1943 31 NI BB NOT_NAMED 1943-05-14 09:00:00 TS 10.7000 82.3000 main 227 227 _________PP___ -1 10.7000 82.3000 TC 45 10.7000 82.3000 3 0 0
1943133N11082 1943 31 NI BB NOT_NAMED 1943-05-14 12:00:00 TS 10.7000 82.3000 main 227 227 _________OP___ -1 10.7000 82.3000 TC 45 10.7000 82.3000 3 0 0
1943133N11082 1943 31 NI BB NOT_NAMED 1943-05-14 15:00:00 TS 10.7000 82.3000 main 227 227 _________PO___ -1 10.7000 82.3000 TC 45 10.7000 82.3000 3 0 0
1943133N11082 1943 31 NI BB NOT_NAMED 1943-05-14 18:00:00 TS 10.6919 82.3081 main 227 227 _________OP___ -1 10.7000 82.3000 TC 45 10.6837 82.3162 3 0 0
1943133N11082 1943 31 NI BB NOT_NAMED 1943-05-14 21:00:00 TS 10.6812 82.3225 main 227 227 _________PP___ -1 10.6925 82.3150 TC 45 10.6700 82.3300 3 0 0
1943133N11082 1943 31 NI BB NOT_NAMED 1943-05-15 00:00:00 TS 10.6856 82.3144 main 227 227 _________OP___ -1 10.7000 82.3000 TC 45 10.6712 82.3287 3 1 294
1943133N11082 1943 31 NI BB NOT_NAMED 1943-05-15 03:00:00 TS 10.7138 82.2575 main 227 219 _________PO___ -1 10.7275 82.2150 TC 41 10.7000 82.3000 3 2 304
1943133N11082 1943 31 NI BB NOT_NAMED 1943-05-15 06:00:00 TS 10.7856 82.1644 main 227 220 _________OP___ -1 10.8000 82.1000 TC 37 10.7713 82.2288 3 3 315
1943133N11082 1943 31 NI BB NOT_NAMED 1943-05-15 09:00:00 TS 10.9063 82.0650 main 228 222 _________PP___ -1 10.9425 82.0000 TC 33 10.8700 82.1301 3 3 322
1943133N11082 1943 31 NI BB NOT_NAMED 1943-05-15 12:00:00 TS 11.0419 81.9581 main 229 218 _________OP___ -1 11.1000 81.9000 TC 30 10.9838 82.0163 3 3 320
1943133N11082 1943 31 NI BB NOT_NAMED 1943-05-15 15:00:00 TS 11.1537 81.8500 main 207 207 _________PO___ -1 11.2075 81.8000 TC 31 11.1000 81.9000 1 3 316
1943133N11082 1943 31 NI BB NOT_NAMED 1943-05-15 18:00:00 TS 11.2541 81.7500 main 207 196 _________OP___ -1 11.3000 81.7000 TC 32 11.2081 81.8000 1 3 316
1943133N11082 1943 31 NI BB NOT_NAMED 1943-05-15 21:00:00 TS 11.3612 81.6500 main 197 186 _________PP___ -1 11.4075 81.6000 TC 33 11.3150 81.7000 1 3 316
1943133N11082 1943 31 NI BB NOT_NAMED 1943-05-16 00:00:00 TS 11.4572 81.5500 main 188 177 _________OP___ -1 11.5000 81.5000 TC 34 11.4144 81.6000 1 3 310
1943133N11082 1943 31 NI BB NOT_NAMED 1943-05-16 03:00:00 TS 11.5287 81.4500 main 177 164 _________PO___ -1 11.5575 81.4000 TC 36 11.5000 81.5000 2 2 302
1943133N11082 1943 31 NI BB NOT_NAMED 1943-05-16 06:00:00 TS 11.5822 81.3459 main 156 146 _________OP___ -1 11.6000 81.3000 TC 39 11.5644 81.3918 2 2 297
1943133N11082 1943 31 NI BB NOT_NAMED 1943-05-16 09:00:00 TS 11.6325 81.2387 main 146 132 _________PP___ -1 11.6500 81.1925 TC 42 11.6150 81.2850 2 2 296
1943133N11082 1943 31 NI BB NOT_NAMED 1943-05-16 12:00:00 TS 11.6791 81.1428 main 132 132 _________OP___ -1 11.7000 81.1000 TC 45 11.6581 81.1856 2 2 300
1943133N11082 1943 31 NI BB NOT_NAMED 1943-05-16 15:00:00 TS 11.7250 81.0712 main 132 117 _________PO___ -1 11.7500 81.0425 TC 49 11.7000 81.1000 3 2 309
1943133N11082 1943 31 NI BB NOT_NAMED 1943-05-16 18:00:00 TS 11.7791 81.0137 main 117 117 _________OP___ -1 11.8000 81.0000 TC 54 11.7581 81.0275 3 2 315
1943133N11082 1943 31 NI BB NOT_NAMED 1943-05-16 21:00:00 TS 11.8362 80.9563 main 117 101 _________PP___ -1 11.8575 80.9425 TC 59 11.8150 80.9700 3 1 316
1943133N11082 1943 31 NI BB NOT_NAMED 1943-05-17 00:00:00 TS 11.8822 80.9137 main 101 101 _________OP___ -1 11.9000 80.9000 TC 64 11.8644 80.9275 3 1 320
1943133N11082 1943 31 NI BB NOT_NAMED 1943-05-17 03:00:00 TS 11.9037 80.8963 main 101 101 _________PO___ -1 11.9075 80.8925 TC 64 11.9000 80.9000 4 0 0
1943133N11082 1943 31 NI BB NOT_NAMED 1943-05-17 06:00:00 TS 11.9072 80.8928 main 101 101 _________OP___ -1 11.9000 80.9000 TC 64 11.9144 80.8856 4 0 0
1943133N11082 1943 31 NI BB NOT_NAMED 1943-05-17 09:00:00 TS 11.9075 80.8925 main 101 101 _________PP___ -1 11.9000 80.9000 TC 64 11.9150 80.8850 4 0 0
1943133N11082 1943 31 NI BB NOT_NAMED 1943-05-17 12:00:00 TS 11.9041 80.8959 main 101 101 _________OP___ -1 11.9000 80.9000 TC 64 11.9081 80.8919 4 0 0
1943133N11082 1943 31 NI BB NOT_NAMED 1943-05-17 15:00:00 TS 11.9000 80.9000 main 101 101 _________PO___ -1 11.9000 80.9000 TC 64 11.9000 80.9000 4 0 0
1943133N11082 1943 31 NI BB NOT_NAMED 1943-05-17 18:00:00 TS 11.8878 80.9162 main 101 101 _________OP___ -1 11.9000 80.9000 TC 64 11.8756 80.9324 4 1 122
1943133N11082 1943 31 NI BB NOT_NAMED 1943-05-17 21:00:00 TS 11.8699 80.9412 main 101 101 _________PP___ -1 11.8850 80.9225 TC 64 11.8549 80.9599 4 0 0
1943133N11082 1943 31 NI BB NOT_NAMED 1943-05-18 00:00:00 TS 11.8784 80.9287 main 101 101 _________OP___ -1 11.9000 80.9000 TC 64 11.8568 80.9574 4 1 303
1943133N11082 1943 31 NI BB NOT_NAMED 1943-05-18 03:00:00 TS 11.9350 80.8437 main 93 70 _________PO___ -1 11.9700 80.7875 TC 56 11.9000 80.9000 4 3 306
1943133N11082 1943 31 NI BB NOT_NAMED 1943-05-18 06:00:00 TS 12.0596 80.6748 main 70 46 _________OP___ -1 12.1000 80.6000 TC 49 12.0192 80.7496 4 5 308
1943133N11082 1943 31 NI BB NOT_NAMED 1943-05-18 09:00:00 TS 12.2389 80.4477 main 39 10 _________PP___ -1 12.3000 80.3501 TC 41 12.1777 80.5453 4 6 309
1943133N11082 1943 31 NI BB NOT_NAMED 1943-05-18 12:00:00 TS 12.4237 80.2092 main 10 0 _________OP___ -1 12.5000 80.1000 TC 34 12.3473 80.3183 4 5 308
1943133N11082 1943 31 NI BB NOT_NAMED 1943-05-18 15:00:00 TS 12.5612 80.0175 main 0 0 _________PO___ -1 12.6225 79.9350 TC 33 12.5000 80.1000 2 4 304
1943133N11082 1943 31 NI BB NOT_NAMED 1943-05-18 18:00:00 TS 12.6441 79.8758 main 0 0 _________OP___ -1 12.7000 79.8000 TC 32 12.5883 79.9517 2 3 297
1943133N11082 1943 31 NI BB NOT_NAMED 1943-05-18 21:00:00 TS 12.6999 79.7398 main 0 0 _________PP___ -1 12.7425 79.6649 TC 31 12.6573 79.8147 2 3 292
1943133N11082 1943 31 NI BB NOT_NAMED 1943-05-19 00:00:00 TS 12.7613 79.5852 main 0 0 _________OP___ -1 12.8000 79.5000 TC 30 12.7226 79.6704 2 4 296
1943133N11082 1943 31 NI BB NOT_NAMED 1943-05-19 03:00:00 TS 12.8713 79.3825 main 0 0 _________PO___ -1 12.9425 79.2651 TC 30 12.8000 79.5000 1 5 299
1943133N11082 1943 31 NI BB NOT_NAMED 1943-05-19 06:00:00 TS 13.0053 79.1394 main 0 0 _________OP___ -1 13.1000 79.0000 TC 30 12.9107 79.2788 1 5 297
1943133N11082 1943 31 NI BB NOT_NAMED 1943-05-19 09:00:00 TS 13.1175 78.8900 main 0 0 _________PP___ -1 13.2000 78.7499 TC 30 13.0351 79.0300 1 5 295
1943133N11082 1943 31 NI BB NOT_NAMED 1943-05-19 12:00:00 TS 13.2334 78.6331 main 0 0 _________OP___ -1 13.3000 78.5000 TC 30 13.1669 78.7663 1 6 297
1943133N11082 1943 31 NI BB NOT_NAMED 1943-05-19 15:00:00 TS 13.3750 78.3750 main 0 0 _________PO___ -1 13.4500 78.2500 TC 30 13.3000 78.5000 1 6 300
1943133N11082 1943 31 NI BB NOT_NAMED 1943-05-19 18:00:00 TS 13.5185 78.1270 main 0 0 _________OP___ -1 13.6000 78.0000 TC 30 13.4371 78.2541 1 6 299
1943133N11082 1943 31 NI AS NOT_NAMED 1943-05-19 21:00:00 TS 13.6437 77.8788 main 0 0 _________PP___ -1 13.7150 77.7500 TC 30 13.5724 78.0075 1 5 295
1943133N11082 1943 31 NI AS NOT_NAMED 1943-05-20 00:00:00 TS 13.7482 77.6286 main 0 0 _________OP___ -1 13.8000 77.5000 TC 30 13.6964 77.7572 1 5 291
1943133N11082 1943 31 NI AS NOT_NAMED 1943-05-20 03:00:00 TS 13.8287 77.3787 main 0 0 _________PO___ -1 13.8575 77.2575 TC 30 13.8000 77.5000 1 5 285
1943133N11082 1943 31 NI AS NOT_NAMED 1943-05-20 06:00:00 TS 13.8858 77.1140 main 0 0 _________OP___ -1 13.9000 77.0000 TC 30 13.8715 77.2280 1 5 281
1943133N11082 1943 31 NI AS NOT_NAMED 1943-05-20 09:00:00 TS 13.9362 76.8249 main 0 0 _________PP___ -1 13.9500 76.7000 TC 30 13.9225 76.9498 1 6 280
1943133N11082 1943 31 NI AS NOT_NAMED 1943-05-20 12:00:00 TS 13.9811 76.5359 main 0 0 _________OP___ -1 14.0000 76.4000 TC 30 13.9622 76.6718 1 5 279
1943133N11082 1943 31 NI AS NOT_NAMED 1943-05-20 15:00:00 TS 14.0250 76.2712 main 0 0 _________PO___ -1 14.0500 76.1425 TC 30 14.0000 76.4000 1 4 283
1943133N11082 1943 31 NI AS NOT_NAMED 1943-05-20 18:00:00 TS 14.0751 76.1245 main 0 0 _________OP___ -1 14.1000 75.9000 TC 30 14.0502 76.3491 1 2 297
1943133N11082 1943 31 NI AS NOT_NAMED 1943-05-20 21:00:00 TS 14.1282 76.0591 main 0 0 _________PP___ -1 14.1557 75.8448 TC 30 14.1007 76.2734 1 4 284
1943133N11082 1943 31 NI AS NOT_NAMED 1943-05-21 00:00:00 TS 14.1755 75.7056 main 0 0 _________OP___ -1 14.2000 75.4000 TC 30 14.1511 76.0112 1 13 273
1943133N11082 1943 31 NI AS NOT_NAMED 1943-05-21 03:00:00 TS 14.2009 74.7185 main 0 0 _________PO___ -1 14.2018 74.0370 TC 30 14.2000 75.4000 1 25 271
1943133N11082 1943 31 NI AS NOT_NAMED 1943-05-21 06:00:00 TS 14.2160 73.1636 main 117 117 _________OP___ -1 14.2000 72.3000 TC 30 14.2320 74.0271 1 32 271
1943133N11082 1943 31 NI AS NOT_NAMED 1943-05-21 09:00:00 TS 14.2481 71.4702 main 277 277 _________PP___ -1 14.2439 70.6055 TC 30 14.2524 72.3349 1 31 271
1943133N11082 1943 31 NI AS NOT_NAMED 1943-05-21 12:00:00 TS 14.2847 69.9751 main 423 423 _________OP___ -1 14.3000 69.3000 TC 30 14.2694 70.6503 1 23 272
1943133N11082 1943 31 NI AS NOT_NAMED 1943-05-21 15:00:00 TS 14.3167 69.0738 main 513 513 _________PO___ -1 14.3334 68.8475 TC 30 14.3000 69.3000 1 12 275
1943133N11082 1943 31 NI AS NOT_NAMED 1943-05-21 18:00:00 TS 14.3862 68.7478 main 546 546 _________OP___ -1 14.4000 68.8000 TC 30 14.3723 68.6956 1 6 290
1943133N11082 1943 31 NI AS NOT_NAMED 1943-05-21 21:00:00 TS 14.5066 68.5392 main 561 556 _________PP___ -1 14.5425 68.6200 TC 30 14.4707 68.4584 1 4 314
1943133N11082 1943 31 NI AS NOT_NAMED 1943-05-22 00:00:00 TS 14.6420 68.4710 main 556 552 _________OP___ -1 14.7000 68.5000 TC 30 14.5840 68.4420 1 3 345
1943133N11082 1943 31 NI AS NOT_NAMED 1943-05-22 03:00:00 TS 14.7537 68.4675 main 548 548 _________PO___ -1 14.8075 68.4350 TC 30 14.7000 68.5000 1 2 342
1943133N11082 1943 31 NI AS NOT_NAMED 1943-05-22 06:00:00 TS 14.8479 68.4054 main 558 554 _________OP___ -1 14.9000 68.4000 TC 30 14.7958 68.4108 1 2 331
1943133N11082 1943 31 NI AS NOT_NAMED 1943-05-22 09:00:00 TS 14.9424 68.3562 main 554 550 _________PP___ -1 14.9925 68.3500 TC 30 14.8924 68.3623 1 2 336
1943133N11082 1943 31 NI AS NOT_NAMED 1943-05-22 12:00:00 TS 15.0464 68.3163 main 560 554 _________OP___ -1 15.1000 68.3000 TC 30 14.9927 68.3327 1 2 340
1943133N11082 1943 31 NI AS NOT_NAMED 1943-05-22 15:00:00 TS 15.1750 68.2787 main 554 554 _________PO___ -1 15.2500 68.2575 TC 30 15.1000 68.3000 1 3 340
1943133N11082 1943 31 NI AS NOT_NAMED 1943-05-22 18:00:00 TS 15.2950 68.2269 main 561 559 _________OP___ -1 15.4000 68.2000 TC 30 15.2163 68.2470 1 3 332
1943133N11082 1943 31 NI AS NOT_NAMED 1943-05-22 21:00:00 TS 15.4091 68.1491 main 569 567 _________PP___ -1 15.5125 68.1100 TC 30 15.3401 68.1752 1 3 324
1943133N11082 1943 31 NI AS NOT_NAMED 1943-05-23 00:00:00 TS 15.5125 68.0605 main 567 567 _________OP___ -1 15.6000 68.0000 TC 30 15.4688 68.0908 1 2 324
1943133N11082 1943 31 NI AS NOT_NAMED 1943-05-23 03:00:00 NR 15.6000 68.0000 main 575 __________O___ -1 TC 15.6000 68.0000 1 2 327

About IBTrACS Database

This database is a web-friendly format of International Best Track Archive for Climate Stewardship (IBTrACS), a global best track data archive curated by NOAA dating back to 1842.

Updated: 2021-12-01